createdAt,value
2018-03-26T00:01:05.292Z,99245.66
2018-03-26T00:03:32.890Z,99240.23
2018-03-26T00:06:00.442Z,99229.43
2018-03-26T00:08:28.035Z,99205.09
2018-03-26T00:10:55.575Z,99195.31
2018-03-26T00:13:23.139Z,99202.20
2018-03-26T00:15:51.505Z,99204.80
2018-03-26T00:18:19.059Z,99209.73
2018-03-26T00:20:46.749Z,99222.43
2018-03-26T00:23:14.301Z,99218.88
2018-03-26T00:25:41.839Z,99230.31
2018-03-26T00:28:09.422Z,99235.06
2018-03-26T00:30:36.966Z,99239.88
2018-03-26T00:33:04.575Z,99252.59
2018-03-26T00:35:32.166Z,99249.32
2018-03-26T00:37:59.765Z,99239.30
2018-03-26T00:40:27.393Z,99226.15
2018-03-26T00:42:54.939Z,99208.15
2018-03-26T00:45:22.490Z,99210.56
2018-03-26T00:47:50.084Z,99209.73
2018-03-26T00:50:17.634Z,99175.92
2018-03-26T00:52:46.044Z,99161.90
2018-03-26T00:55:13.607Z,99156.82
2018-03-26T00:57:41.200Z,99139.41
2018-03-26T01:00:08.795Z,99108.52
2018-03-26T01:02:36.682Z,99094.77
2018-03-26T01:05:04.695Z,99083.58
2018-03-26T01:07:32.704Z,99099.02
2018-03-26T01:10:00.246Z,99107.37
2018-03-26T01:12:27.800Z,99121.95
2018-03-26T01:14:55.901Z,99134.27
2018-03-26T01:17:23.448Z,99154.22
2018-03-26T01:19:52.463Z,99160.40
2018-03-26T01:22:20.311Z,99163.19
2018-03-26T01:24:47.882Z,99162.45
2018-03-26T01:27:15.488Z,99160.59
2018-03-26T01:29:43.625Z,99155.02
2018-03-26T01:32:11.185Z,99146.48
2018-03-26T01:34:38.768Z,99152.97
2018-03-26T01:37:06.821Z,99142.55
2018-03-26T01:39:35.130Z,99156.80
2018-03-26T01:42:03.103Z,99158.09
2018-03-26T01:44:30.683Z,99150.55
2018-03-26T01:46:58.266Z,99139.34
2018-03-26T01:49:25.824Z,99135.39
2018-03-26T01:51:53.417Z,99133.23
2018-03-26T01:54:21.779Z,99115.03
2018-03-26T01:56:50.064Z,99115.57
2018-03-26T01:59:18.139Z,99135.98
2018-03-26T02:01:45.693Z,99162.34
2018-03-26T02:04:13.415Z,99169.71
2018-03-26T02:06:40.973Z,99173.52
2018-03-26T02:09:08.909Z,99167.12
2018-03-26T02:11:37.362Z,99163.15
2018-03-26T02:14:04.973Z,99153.28
2018-03-26T02:16:32.807Z,99157.29
2018-03-26T02:19:00.360Z,99160.81
2018-03-26T02:21:28.594Z,99170.16
2018-03-26T02:23:56.178Z,99165.70
2018-03-26T02:26:23.724Z,99152.88
2018-03-26T02:28:51.281Z,99161.55
2018-03-26T02:31:19.242Z,99165.98
2018-03-26T02:33:46.793Z,99162.97
2018-03-26T02:36:14.794Z,99160.18
2018-03-26T02:38:43.276Z,99149.22
2018-03-26T02:41:11.473Z,99162.09
2018-03-26T02:43:39.016Z,99169.10
2018-03-26T02:46:06.572Z,99172.33
2018-03-26T02:48:34.312Z,99165.29
2018-03-26T02:51:01.866Z,99160.02
2018-03-26T02:53:29.451Z,99148.08
2018-03-26T02:55:57.077Z,99160.53
2018-03-26T02:58:24.655Z,99157.86
2018-03-26T03:00:52.260Z,99166.62
2018-03-26T03:03:19.804Z,99174.38
2018-03-26T03:05:47.361Z,99172.34
2018-03-26T03:08:14.957Z,99170.23
2018-03-26T03:10:42.548Z,99172.08
2018-03-26T03:13:10.100Z,99171.86
2018-03-26T03:15:37.698Z,99168.81
2018-03-26T03:18:05.263Z,99172.23
2018-03-26T03:20:32.866Z,99174.54
2018-03-26T03:23:00.924Z,99169.36
2018-03-26T03:25:28.516Z,99166.70
2018-03-26T03:27:56.099Z,99163.31
2018-03-26T03:30:24.558Z,99177.94
2018-03-26T03:32:52.158Z,99174.36
2018-03-26T03:35:20.289Z,99162.78
2018-03-26T03:37:47.894Z,99154.64
2018-03-26T03:40:15.444Z,99157.52
2018-03-26T03:42:43.536Z,99160.30
2018-03-26T03:45:11.080Z,99163.36
2018-03-26T03:47:38.668Z,99162.78
2018-03-26T03:50:06.223Z,99171.23
2018-03-26T03:52:33.830Z,99171.36
2018-03-26T03:55:02.011Z,99180.81
2018-03-26T03:57:29.628Z,99177.73
2018-03-26T03:59:57.471Z,99167.63
2018-03-26T04:02:25.012Z,99173.11
2018-03-26T04:04:52.609Z,99174.23
2018-03-26T04:07:20.680Z,99172.94
2018-03-26T04:09:48.334Z,99166.72
2018-03-26T04:12:15.881Z,99156.34
2018-03-26T04:14:43.755Z,99164.58
2018-03-26T04:17:11.347Z,99161.53
2018-03-26T04:19:38.895Z,99152.05
2018-03-26T04:22:06.733Z,99163.11
2018-03-26T04:24:34.324Z,99167.81
2018-03-26T04:27:01.870Z,99174.50
2018-03-26T04:29:29.499Z,99176.04
2018-03-26T04:31:57.049Z,99163.95
2018-03-26T04:34:24.604Z,99171.64
2018-03-26T04:36:52.233Z,99173.41
2018-03-26T04:39:19.793Z,99170.64
2018-03-26T04:41:47.628Z,99166.44
2018-03-26T04:44:15.230Z,99183.96
2018-03-26T04:46:42.833Z,99180.55
2018-03-26T04:49:10.435Z,99169.53
2018-03-26T04:51:38.032Z,99170.91
2018-03-26T04:54:05.583Z,99173.60
2018-03-26T04:56:33.174Z,99172.30
2018-03-26T04:59:00.733Z,99187.04
2018-03-26T05:01:28.452Z,99177.57
2018-03-26T05:03:56.007Z,99177.50
2018-03-26T05:06:23.568Z,99173.81
2018-03-26T05:08:51.154Z,99168.10
2018-03-26T05:11:19.535Z,99155.34
2018-03-26T05:13:47.112Z,99162.71
2018-03-26T05:16:15.532Z,99166.81
2018-03-26T05:18:43.175Z,99159.41
2018-03-26T05:21:11.162Z,99153.48
2018-03-26T05:23:39.317Z,99151.97
2018-03-26T05:26:06.910Z,99165.72
2018-03-26T05:28:34.523Z,99161.12
2018-03-26T05:31:02.107Z,99166.91
2018-03-26T05:33:29.663Z,99158.86
2018-03-26T05:35:57.389Z,99160.77
2018-03-26T05:38:25.324Z,99163.16
2018-03-26T05:40:53.510Z,99158.77
2018-03-26T05:43:21.336Z,99164.52
2018-03-26T05:45:48.923Z,99165.49
2018-03-26T05:48:18.036Z,99170.65
2018-03-26T05:50:45.640Z,99177.86
2018-03-26T05:53:13.196Z,99163.67
2018-03-26T05:55:41.024Z,99162.47
2018-03-26T05:58:08.792Z,99164.80
2018-03-26T06:00:36.344Z,99162.36
2018-03-26T06:03:04.592Z,99159.09
2018-03-26T06:05:32.720Z,99150.97
2018-03-26T06:08:00.544Z,99162.91
2018-03-26T06:10:28.105Z,99156.78
2018-03-26T06:12:55.755Z,99148.74
2018-03-26T06:15:23.317Z,99141.99
2018-03-26T06:17:50.941Z,99140.47
2018-03-26T06:20:18.960Z,99135.52
2018-03-26T06:22:46.961Z,99140.02
2018-03-26T06:25:14.816Z,99140.09
2018-03-26T06:27:42.381Z,99141.22
2018-03-26T06:30:11.295Z,99138.70
2018-03-26T06:32:38.908Z,99129.48
2018-03-26T06:35:06.472Z,99121.12
2018-03-26T06:40:34.175Z,99124.48
2018-03-26T06:43:01.934Z,99123.61
2018-03-26T06:45:29.865Z,99125.09
2018-03-26T06:47:57.409Z,99123.89
2018-03-26T06:50:25.160Z,99132.38
2018-03-26T06:52:53.156Z,99139.06
2018-03-26T06:55:20.741Z,99132.64
2018-03-26T06:57:49.227Z,99131.47
2018-03-26T07:00:17.425Z,99126.92
2018-03-26T07:02:45.018Z,99134.03
2018-03-26T07:05:12.736Z,99131.27
2018-03-26T07:07:40.399Z,99129.65
2018-03-26T07:10:07.972Z,99134.28
2018-03-26T07:12:36.485Z,99130.85
2018-03-26T07:17:31.166Z,99147.89
2018-03-26T07:20:10.533Z,99139.30
2018-03-26T07:22:38.436Z,99140.13
2018-03-26T07:25:07.004Z,99143.52
2018-03-26T07:27:36.011Z,99138.02
2018-03-26T07:30:04.601Z,99141.48
2018-03-26T07:32:32.275Z,99157.44
2018-03-26T07:34:59.932Z,99145.84
2018-03-26T07:37:27.531Z,99138.83
2018-03-26T07:39:55.151Z,99130.66
2018-03-26T07:42:22.744Z,99134.11
2018-03-26T07:44:50.379Z,99126.05
2018-03-26T07:47:18.227Z,99120.73
2018-03-26T07:49:45.793Z,99128.30
2018-03-26T07:52:13.385Z,99131.70
2018-03-26T07:54:40.991Z,99121.52
2018-03-26T07:57:09.506Z,99110.47
2018-03-26T07:59:37.943Z,99113.88
2018-03-26T08:02:07.397Z,99119.50
2018-03-26T08:04:35.728Z,99122.87
2018-03-26T08:07:04.232Z,99128.77
2018-03-26T08:09:31.849Z,99119.60
2018-03-26T08:11:59.414Z,99118.06
2018-03-26T08:14:27.017Z,99115.59
2018-03-26T08:16:54.892Z,99108.50
2018-03-26T08:19:22.649Z,99098.67
2018-03-26T08:21:50.199Z,99094.99
2018-03-26T08:24:17.799Z,99092.15
2018-03-26T08:26:47.124Z,99096.95
2018-03-26T08:29:15.444Z,99094.27
2018-03-26T08:31:43.048Z,99098.20
2018-03-26T08:34:10.735Z,99095.16
2018-03-26T08:36:38.310Z,99096.97
2018-03-26T08:39:05.904Z,99093.66
2018-03-26T08:41:34.409Z,99091.22
2018-03-26T08:44:02.020Z,99088.94
2018-03-26T08:46:29.577Z,99088.26
2018-03-26T08:48:57.538Z,99083.37
2018-03-26T08:51:25.139Z,99086.04
2018-03-26T08:53:52.741Z,99084.89
2018-03-26T08:56:20.368Z,99087.11
2018-03-26T08:58:48.034Z,99082.95
2018-03-26T09:01:15.828Z,99093.73
2018-03-26T09:03:43.645Z,99079.91
2018-03-26T09:06:11.245Z,99079.37
2018-03-26T09:08:39.395Z,99076.16
2018-03-26T09:11:06.997Z,99079.41
2018-03-26T09:13:34.558Z,99083.95
2018-03-26T09:16:02.231Z,99082.50
2018-03-26T09:18:29.812Z,99076.02
2018-03-26T09:20:57.378Z,99072.14
2018-03-26T09:23:24.978Z,99063.59
2018-03-26T09:25:52.553Z,99067.23
2018-03-26T09:28:20.181Z,99068.31
2018-03-26T09:30:47.771Z,99067.00
2018-03-26T09:33:15.380Z,99070.17
2018-03-26T09:35:43.024Z,99079.11
2018-03-26T09:38:10.572Z,99066.77
2018-03-26T09:40:38.282Z,99068.44
2018-03-26T09:43:05.839Z,99075.11
2018-03-26T09:45:33.441Z,99058.28
2018-03-26T09:48:01.050Z,99041.02
2018-03-26T09:50:29.445Z,99003.26
2018-03-26T09:52:57.058Z,99008.39
2018-03-26T09:55:25.499Z,98993.36
2018-03-26T09:57:53.136Z,99008.30
2018-03-26T10:00:26.603Z,98997.52
2018-03-26T10:02:56.094Z,98998.55
2018-03-26T10:05:23.990Z,99009.63
2018-03-26T10:07:51.588Z,99021.61
2018-03-26T10:10:19.196Z,99016.00
2018-03-26T10:12:46.826Z,99011.88
2018-03-26T10:15:14.432Z,99003.41
2018-03-26T10:17:42.040Z,99011.98
2018-03-26T10:20:09.612Z,99011.31
2018-03-26T10:22:37.240Z,99017.97
2018-03-26T10:25:05.440Z,99016.35
2018-03-26T10:27:33.309Z,99014.86
2018-03-26T10:30:00.904Z,99016.78
2018-03-26T10:32:28.938Z,99010.39
2018-03-26T10:34:57.406Z,99014.69
2018-03-26T10:37:25.021Z,99014.19
2018-03-26T10:39:53.165Z,99013.72
2018-03-26T10:42:21.605Z,99012.72
2018-03-26T10:44:49.627Z,99009.58
2018-03-26T10:47:18.009Z,99004.48
2018-03-26T10:49:47.251Z,99004.33
2018-03-26T10:52:14.817Z,99002.06
2018-03-26T10:54:43.097Z,99002.02
2018-03-26T10:57:11.463Z,99003.95
2018-03-26T10:59:39.610Z,98998.61
2018-03-26T11:02:08.217Z,99001.69
2018-03-26T11:04:36.025Z,99000.47
2018-03-26T11:07:05.021Z,98993.72
2018-03-26T11:09:32.980Z,98995.82
2018-03-26T11:12:00.588Z,99001.02
2018-03-26T11:14:28.163Z,98995.14
2018-03-26T11:16:56.273Z,98999.56
2018-03-26T11:19:23.944Z,99003.28
2018-03-26T11:21:51.501Z,98997.94
2018-03-26T11:24:20.892Z,98998.58
2018-03-26T11:26:48.706Z,98993.39
2018-03-26T11:29:16.316Z,98990.78
2018-03-26T11:31:43.886Z,98987.45
2018-03-26T11:34:11.480Z,98987.64
2018-03-26T11:36:39.051Z,98977.41
2018-03-26T11:39:06.751Z,98982.97
2018-03-26T11:41:34.346Z,98987.27
2018-03-26T11:44:02.606Z,98988.48
2018-03-26T11:46:31.179Z,98967.25
2018-03-26T11:48:59.847Z,98971.09
2018-03-26T11:51:27.472Z,98958.57
2018-03-26T11:53:55.041Z,98959.73
2018-03-26T11:56:22.648Z,98953.24
2018-03-26T11:58:50.516Z,98947.92
2018-03-26T12:01:18.274Z,98955.80
2018-03-26T12:03:45.884Z,98948.11
2018-03-26T12:06:14.196Z,98954.38
2018-03-26T12:08:42.480Z,98940.05
2018-03-26T12:11:12.774Z,98939.13
2018-03-26T12:13:40.894Z,98941.36
2018-03-26T12:16:08.538Z,98944.34
2018-03-26T12:18:36.113Z,98939.19
2018-03-26T12:21:03.754Z,98945.28
2018-03-26T12:23:42.881Z,98941.14
2018-03-26T12:26:10.480Z,98947.45
2018-03-26T12:28:49.825Z,98938.08
2018-03-26T12:31:18.102Z,98932.93
2018-03-26T12:33:57.488Z,98930.95
2018-03-26T12:36:25.180Z,98931.77
2018-03-26T12:38:52.749Z,98933.23
2018-03-26T12:41:20.729Z,98925.23
2018-03-26T12:43:49.049Z,98925.94
2018-03-26T12:46:28.783Z,98925.75
2018-03-26T12:48:57.028Z,98916.59
2018-03-26T12:51:36.788Z,98926.73
2018-03-26T12:54:06.524Z,98921.67
2018-03-26T12:56:34.719Z,98917.77
2018-03-26T12:59:03.624Z,98915.05
2018-03-26T13:01:43.586Z,98905.67
2018-03-26T13:04:11.871Z,98908.64
2018-03-26T13:06:41.060Z,98906.98
2018-03-26T13:09:09.654Z,98898.77
2018-03-26T13:11:39.318Z,98901.24
2018-03-26T13:14:07.625Z,98900.42
2018-03-26T13:16:36.618Z,98904.77
2018-03-26T13:19:05.144Z,98901.09
2018-03-26T13:21:35.539Z,98888.94
2018-03-26T13:24:03.768Z,98884.25
2018-03-26T13:26:32.385Z,98886.05
2018-03-26T13:29:01.212Z,98891.16
2018-03-26T13:31:29.656Z,98893.70
2018-03-26T13:33:57.912Z,98886.43
2018-03-26T13:36:27.642Z,98892.38
2018-03-26T13:38:56.293Z,98887.28
2018-03-26T13:41:25.001Z,98886.54
2018-03-26T13:43:54.304Z,98897.03
2018-03-26T13:46:22.406Z,98893.97
2018-03-26T13:48:50.452Z,98889.08
2018-03-26T13:51:19.135Z,98887.59
2018-03-26T13:53:48.440Z,98890.70
2018-03-26T13:56:17.147Z,98887.41
2018-03-26T13:58:46.055Z,98883.29
2018-03-26T14:01:15.367Z,98888.78
2018-03-26T14:03:43.894Z,98892.58
2018-03-26T14:06:12.502Z,98888.70
2018-03-26T14:08:53.770Z,98880.02
2018-03-26T14:11:35.691Z,98891.93
2018-03-26T14:14:16.868Z,98885.66
2018-03-26T14:16:57.289Z,98886.35
2018-03-26T14:19:25.987Z,98880.90
2018-03-26T14:21:53.890Z,98881.98
2018-03-26T14:24:23.085Z,98874.77
2018-03-26T14:26:52.327Z,98875.30
2018-03-26T14:29:21.313Z,98876.88
2018-03-26T14:31:50.020Z,98878.16
2018-03-26T14:34:19.625Z,98870.47
2018-03-26T14:36:47.908Z,98876.25
2018-03-26T14:39:16.685Z,98885.24
2018-03-26T14:41:45.634Z,98881.04
2018-03-26T14:44:14.618Z,98882.59
2018-03-26T14:46:43.048Z,98882.14
2018-03-26T14:49:12.005Z,98882.14
2018-03-26T14:51:41.155Z,98885.59
2018-03-26T14:54:10.388Z,98884.19
2018-03-26T14:56:39.949Z,98881.58
2018-03-26T14:59:08.872Z,98880.70
2018-03-26T15:01:37.315Z,98882.67
2018-03-26T15:04:06.201Z,98881.19
2018-03-26T15:06:34.798Z,98870.83
2018-03-26T15:09:03.410Z,98880.23
2018-03-26T15:11:32.608Z,98869.91
2018-03-26T15:14:02.220Z,98877.49
2018-03-26T15:16:32.128Z,98880.45
2018-03-26T15:19:01.760Z,98878.69
2018-03-26T15:21:30.089Z,98870.44
2018-03-26T15:23:58.864Z,98883.23
2018-03-26T15:26:27.954Z,98884.73
2018-03-26T15:28:56.560Z,98885.73
2018-03-26T15:31:26.098Z,98886.93
2018-03-26T15:33:54.755Z,98885.23
2018-03-26T15:36:23.756Z,98892.39
2018-03-26T15:38:52.206Z,98890.55
2018-03-26T15:41:20.903Z,98885.40
2018-03-26T15:43:49.295Z,98894.86
2018-03-26T15:46:18.522Z,98886.84
2018-03-26T15:48:46.641Z,98889.94
2018-03-26T15:51:15.319Z,98887.92
2018-03-26T15:53:44.313Z,98892.00
2018-03-26T15:56:14.662Z,98900.33
2018-03-26T15:58:43.953Z,98900.66
2018-03-26T16:01:12.823Z,98898.70
2018-03-26T16:03:41.664Z,98907.92
2018-03-26T16:06:13.220Z,98911.50
2018-03-26T16:08:43.517Z,98913.55
2018-03-26T16:11:13.349Z,98916.91
2018-03-26T16:13:42.090Z,98923.48
2018-03-26T16:16:11.528Z,98921.92
2018-03-26T16:18:41.003Z,98926.30
2018-03-26T16:21:12.765Z,98924.08
2018-03-26T16:23:41.249Z,98930.27
2018-03-26T16:26:10.584Z,98925.22
2018-03-26T16:28:40.153Z,98930.07
2018-03-26T16:31:09.902Z,98924.98
2018-03-26T16:33:39.164Z,98921.15
2018-03-26T16:36:11.503Z,98916.39
2018-03-26T16:38:41.078Z,98923.91
2018-03-26T16:41:09.613Z,98922.58
2018-03-26T16:43:38.442Z,98931.53
2018-03-26T16:46:08.530Z,98933.03
2018-03-26T16:48:38.844Z,98931.95
2018-03-26T16:51:08.675Z,98940.81
2018-03-26T16:53:38.263Z,98946.31
2018-03-26T16:56:06.946Z,98942.42
2018-03-26T16:58:37.480Z,98938.95
2018-03-26T17:01:07.955Z,98942.80
2018-03-26T17:03:36.938Z,98948.27
2018-03-26T17:06:06.861Z,98948.82
2018-03-26T17:08:35.594Z,98953.73
2018-03-26T17:11:04.421Z,98962.38
2018-03-26T17:13:33.892Z,98959.39
2018-03-26T17:16:02.678Z,98959.89
2018-03-26T17:18:31.497Z,98963.06
2018-03-26T17:21:01.175Z,98960.35
2018-03-26T17:26:03.167Z,98957.39
2018-03-26T17:28:34.250Z,98955.34
2018-03-26T17:31:04.762Z,98953.64
2018-03-26T17:33:33.752Z,98956.53
2018-03-26T17:36:02.768Z,98956.46
2018-03-26T17:38:33.399Z,98963.57
2018-03-26T17:41:05.994Z,98966.23
2018-03-26T17:43:34.464Z,98972.58
2018-03-26T17:46:03.392Z,98970.77
2018-03-26T17:48:32.419Z,98973.31
2018-03-26T17:51:02.410Z,98970.66
2018-03-26T17:53:31.906Z,98976.70
2018-03-26T17:56:01.289Z,98978.83
2018-03-26T17:58:30.808Z,98975.90
2018-03-26T18:01:01.339Z,98975.34
2018-03-26T18:03:30.987Z,98974.83
2018-03-26T18:06:00.502Z,98980.16
2018-03-26T18:08:29.868Z,98975.06
2018-03-26T18:11:00.482Z,98978.13
2018-03-26T18:13:30.017Z,98978.09
2018-03-26T18:18:36.575Z,98975.06
2018-03-26T18:21:09.122Z,98980.52
2018-03-26T18:23:39.102Z,98978.79
2018-03-26T18:26:07.793Z,98972.39
2018-03-26T18:28:36.577Z,98975.95
2018-03-26T18:31:06.768Z,98973.50
2018-03-26T18:33:36.917Z,98976.03
2018-03-26T18:36:06.897Z,98974.89
2018-03-26T18:38:36.108Z,98974.28
2018-03-26T18:41:05.125Z,98984.96
2018-03-26T18:43:34.498Z,98983.61
2018-03-26T18:46:03.745Z,98977.38
2018-03-26T18:48:32.714Z,98988.41
2018-03-26T18:51:02.933Z,98987.19
2018-03-26T18:53:31.835Z,98989.91
2018-03-26T18:56:01.234Z,98995.98
2018-03-26T18:58:32.955Z,98997.91
2018-03-26T19:01:02.286Z,98990.84
2018-03-26T19:03:30.972Z,98997.98
2018-03-26T19:06:01.723Z,98992.00
2018-03-26T19:08:30.594Z,98994.30
2018-03-26T19:11:00.411Z,98989.81
2018-03-26T19:13:29.424Z,98991.97
2018-03-26T19:15:59.517Z,98984.06
2018-03-26T19:18:29.443Z,98990.23
2018-03-26T19:20:58.897Z,98995.53
2018-03-26T19:23:29.188Z,98991.00
2018-03-26T19:25:59.603Z,98992.27
2018-03-26T19:28:28.882Z,98989.63
2018-03-26T19:30:57.943Z,98992.29
2018-03-26T19:33:27.243Z,98996.37
2018-03-26T19:35:55.963Z,98989.79
2018-03-26T19:38:24.722Z,98994.94
2018-03-26T19:40:54.218Z,98991.52
2018-03-26T19:43:24.071Z,98988.36
2018-03-26T19:45:53.774Z,98992.53
2018-03-26T19:48:23.710Z,98997.20
2018-03-26T19:50:54.054Z,98995.70
2018-03-26T19:53:22.670Z,99000.30
2018-03-26T19:55:53.606Z,98997.09
2018-03-26T19:58:24.556Z,98992.53
2018-03-26T20:00:53.792Z,98986.39
2018-03-26T20:03:23.160Z,98988.65
2018-03-26T20:05:53.756Z,98986.24
2018-03-26T20:08:24.146Z,98985.96
2018-03-26T20:10:52.602Z,98982.40
2018-03-26T20:13:22.816Z,98975.61
2018-03-26T20:15:51.739Z,98974.42
2018-03-26T20:18:21.809Z,98982.63
2018-03-26T20:20:52.776Z,98979.66
2018-03-26T20:23:22.142Z,98972.39
2018-03-26T20:25:51.190Z,98979.17
2018-03-26T20:28:20.759Z,98975.23
2018-03-26T20:30:51.479Z,98970.13
2018-03-26T20:33:22.723Z,98963.81
2018-03-26T20:35:52.809Z,98962.81
2018-03-26T20:38:21.299Z,98959.94
2018-03-26T20:40:51.228Z,98944.44
2018-03-26T20:43:20.480Z,98944.63
2018-03-26T20:45:49.150Z,98937.29
2018-03-26T20:48:19.067Z,98939.02
2018-03-26T20:50:49.017Z,98937.56
2018-03-26T20:53:19.088Z,98941.05
2018-03-26T20:55:47.345Z,98927.23
2018-03-26T20:58:16.802Z,98925.46
2018-03-26T21:00:47.476Z,98926.64
2018-03-26T21:03:18.636Z,98925.86
2018-03-26T21:05:47.299Z,98926.23
2018-03-26T21:08:15.672Z,98925.96
2018-03-26T21:10:43.967Z,98926.05
2018-03-26T21:13:12.828Z,98924.19
2018-03-26T21:15:41.425Z,98921.13
2018-03-26T21:18:10.341Z,98924.07
2018-03-26T21:20:38.793Z,98925.70
2018-03-26T21:23:08.049Z,98913.73
2018-03-26T21:25:36.289Z,98916.22
2018-03-26T21:28:04.549Z,98916.22
2018-03-26T21:30:32.791Z,98907.09
2018-03-26T21:33:01.456Z,98905.11
2018-03-26T21:35:29.961Z,98914.66
2018-03-26T21:37:57.525Z,98906.91
2018-03-26T21:40:25.629Z,98906.72
2018-03-26T21:42:54.203Z,98906.20
2018-03-26T21:45:22.853Z,98913.27
2018-03-26T21:47:50.396Z,98919.32
2018-03-26T21:50:17.939Z,98912.16
2018-03-26T21:52:45.531Z,98914.19
2018-03-26T21:55:14.310Z,98911.48
2018-03-26T21:57:42.799Z,98910.41
2018-03-26T22:00:21.075Z,98907.77
2018-03-26T22:02:48.657Z,98911.27
2018-03-26T22:05:16.662Z,98913.41
2018-03-26T22:07:44.212Z,98915.56
2018-03-26T22:10:11.761Z,98911.02
2018-03-26T22:12:39.356Z,98916.30
2018-03-26T22:15:07.231Z,98914.36
2018-03-26T22:17:34.786Z,98915.67
2018-03-26T22:20:02.374Z,98913.01
2018-03-26T22:22:29.987Z,98909.02
2018-03-26T22:24:57.544Z,98912.94
2018-03-26T22:27:25.286Z,98911.18
2018-03-26T22:29:52.898Z,98919.22
2018-03-26T22:32:20.499Z,98925.50
2018-03-26T22:34:48.087Z,98923.36
2018-03-26T22:37:15.685Z,98926.42
2018-03-26T22:39:43.238Z,98931.73
2018-03-26T22:42:10.823Z,98933.38
2018-03-26T22:44:38.417Z,98934.88
2018-03-26T22:47:06.859Z,98933.98
2018-03-26T22:49:34.400Z,98934.47
2018-03-26T22:52:02.699Z,98938.11
2018-03-26T22:54:30.258Z,98939.52
2018-03-26T22:56:57.866Z,98935.41
2018-03-26T22:59:25.421Z,98930.60
2018-03-26T23:01:53.327Z,98937.02
2018-03-26T23:04:21.253Z,98939.80
2018-03-26T23:06:49.243Z,98943.64
2018-03-26T23:09:17.435Z,98948.75
2018-03-26T23:11:45.032Z,98943.78
2018-03-26T23:14:12.585Z,98937.76
2018-03-26T23:16:40.172Z,98938.31
2018-03-26T23:19:07.720Z,98940.17
2018-03-26T23:21:35.780Z,98933.09
2018-03-26T23:24:03.368Z,98936.66
2018-03-26T23:26:30.960Z,98936.45
2018-03-26T23:28:58.549Z,98938.20
2018-03-26T23:31:26.832Z,98937.27
2018-03-26T23:33:54.428Z,98937.38
2018-03-26T23:36:22.029Z,98936.00
2018-03-26T23:38:49.869Z,98933.25
2018-03-26T23:41:17.472Z,98936.56
2018-03-26T23:43:45.192Z,98939.81
2018-03-26T23:46:12.736Z,98943.31
2018-03-26T23:48:40.333Z,98931.70
2018-03-26T23:51:08.755Z,98936.11
2018-03-26T23:53:36.305Z,98942.72
2018-03-26T23:56:03.900Z,98939.73
2018-03-26T23:58:31.482Z,98938.91
